This is the latest recevied weather packets stored in our database for station/object VK3MAK-1. If no packets are shown the sender has not sent any weather packets the latest 10 day(s).
| Time | Temp. | Humidity | Pressure | Rain* | Wind** | Luminosity | Snow |
|---|---|---|---|---|---|---|---|
| 1777551603 | 15.56° C | 51% | 1022.7 hPa | 0 mm | 3.58 m/s, 23° | - | - |
| 1777551003 | 15.56° C | 51% | 1022.7 hPa | 0 mm | 3.58 m/s, 23° | - | - |
| 1777550404 | 15° C | 51% | 1022.7 hPa | 0 mm | 3.58 m/s, 23° | - | - |
| 1777549803 | 15° C | 51% | 1022.7 hPa | 0 mm | 3.58 m/s, 23° | - | - |
| 1777549204 | 15° C | 51% | 1022.7 hPa | 0 mm | 3.58 m/s, 23° | - | - |
| 1777548611 | 15° C | 49% | 1022.7 hPa | 0 mm | 3.13 m/s, 23° | - | - |
| 1777548003 | 15° C | 49% | 1022.7 hPa | 0 mm | 3.13 m/s, 23° | - | - |
| 1777547403 | 15° C | 49% | 1022.7 hPa | 0 mm | 3.13 m/s, 23° | - | - |
| 1777546804 | 16.11° C | 45% | 1022.7 hPa | 0 mm | 3.13 m/s, 23° | - | - |
| 1777546203 | 16.11° C | 45% | 1022.7 hPa | 0 mm | 3.13 m/s, 23° | - | - |
| 1777545604 | 16.11° C | 45% | 1022.7 hPa | 0 mm | 3.13 m/s, 23° | - | - |
| 1777545003 | 15.56° C | 49% | 1022.5 hPa | 0 mm | 2.24 m/s, 23° | - | - |
| 1777544403 | 15.56° C | 49% | 1022.5 hPa | 0 mm | 2.24 m/s, 23° | - | - |
| 1777543804 | 15.56° C | 49% | 1022.5 hPa | 0 mm | 2.24 m/s, 23° | - | - |
| 1777543204 | 16.11° C | 49% | 1022.4 hPa | 0 mm | 1.79 m/s, 23° | - | - |
| 1777542603 | 16.11° C | 49% | 1022.4 hPa | 0 mm | 1.79 m/s, 23° | - | - |
| 1777542003 | 16.11° C | 49% | 1022.4 hPa | 0 mm | 1.79 m/s, 23° | - | - |
| 1777541404 | 17.78° C | 44% | 1022.3 hPa | 0 mm | 1.79 m/s, 23° | - | - |
| 1777540804 | 17.78° C | 44% | 1022.3 hPa | 0 mm | 1.79 m/s, 23° | - | - |
| 1777540208 | 17.78° C | 44% | 1022.3 hPa | 0 mm | 1.79 m/s, 23° | - | - |
| 1777539604 | 18.89° C | 42% | 1022.3 hPa | 0 mm | 2.24 m/s, 23° | - | - |
| 1777539003 | 18.89° C | 42% | 1022.3 hPa | 0 mm | 2.24 m/s, 23° | - | - |
| 1777538405 | 18.89° C | 42% | 1022.3 hPa | 0 mm | 2.24 m/s, 23° | - | - |
| 1777537803 | 19.44° C | 41% | 1022.1 hPa | 0 mm | 1.79 m/s, 23° | - | - |
| 1777537203 | 19.44° C | 41% | 1022.1 hPa | 0 mm | 1.79 m/s, 23° | - | - |
* Rain latest hour (hover to see other rain measurements)
** Current wind speed in m/s (hover to see current wind gust speed)